sensor_id;sensor_type;location;lat;lon;timestamp;temperature;humidity
42905;DHT22;28550;51.228;4.528;2022-10-16T00:00:19;13.50;74.90
42905;DHT22;28550;51.228;4.528;2022-10-16T00:02:44;13.50;75.50
42905;DHT22;28550;51.228;4.528;2022-10-16T00:05:10;13.40;75.70
42905;DHT22;28550;51.228;4.528;2022-10-16T00:07:36;13.50;76.50
42905;DHT22;28550;51.228;4.528;2022-10-16T00:10:01;13.40;74.60
42905;DHT22;28550;51.228;4.528;2022-10-16T00:12:28;13.50;75.20
42905;DHT22;28550;51.228;4.528;2022-10-16T00:14:54;13.60;75.80
42905;DHT22;28550;51.228;4.528;2022-10-16T00:17:20;13.60;77.80
42905;DHT22;28550;51.228;4.528;2022-10-16T00:19:45;13.60;73.80
42905;DHT22;28550;51.228;4.528;2022-10-16T00:22:11;13.70;74.90
42905;DHT22;28550;51.228;4.528;2022-10-16T00:24:36;13.70;73.50
42905;DHT22;28550;51.228;4.528;2022-10-16T00:27:02;13.80;72.50
42905;DHT22;28550;51.228;4.528;2022-10-16T00:29:28;13.80;68.20
42905;DHT22;28550;51.228;4.528;2022-10-16T00:31:53;13.90;67.30
42905;DHT22;28550;51.228;4.528;2022-10-16T00:34:19;13.90;64.20
42905;DHT22;28550;51.228;4.528;2022-10-16T00:39:39;13.90;65.60
42905;DHT22;28550;51.228;4.528;2022-10-16T00:42:05;13.70;70.50
42905;DHT22;28550;51.228;4.528;2022-10-16T00:47:30;13.70;75.00
42905;DHT22;28550;51.228;4.528;2022-10-16T00:50:01;13.70;74.80
42905;DHT22;28550;51.228;4.528;2022-10-16T00:52:27;13.80;71.60
42905;DHT22;28550;51.228;4.528;2022-10-16T00:54:53;13.70;73.50
42905;DHT22;28550;51.228;4.528;2022-10-16T00:57:19;13.60;75.00
42905;DHT22;28550;51.228;4.528;2022-10-16T00:59:46;13.70;75.20
42905;DHT22;28550;51.228;4.528;2022-10-16T01:02:13;13.80;73.40
42905;DHT22;28550;51.228;4.528;2022-10-16T01:04:39;13.70;77.20
42905;DHT22;28550;51.228;4.528;2022-10-16T01:15:24;13.70;77.90
42905;DHT22;28550;51.228;4.528;2022-10-16T01:20:24;13.70;79.80
42905;DHT22;28550;51.228;4.528;2022-10-16T01:23:12;13.70;77.40
42905;DHT22;28550;51.228;4.528;2022-10-16T01:26:07;13.70;78.90
42905;DHT22;28550;51.228;4.528;2022-10-16T01:28:34;13.70;75.80
42905;DHT22;28550;51.228;4.528;2022-10-16T01:31:02;13.70;76.40
42905;DHT22;28550;51.228;4.528;2022-10-16T01:33:28;13.50;77.90
42905;DHT22;28550;51.228;4.528;2022-10-16T01:36:15;13.50;83.70
42905;DHT22;28550;51.228;4.528;2022-10-16T01:38:43;13.50;80.40
42905;DHT22;28550;51.228;4.528;2022-10-16T01:41:22;13.40;83.60
42905;DHT22;28550;51.228;4.528;2022-10-16T01:43:53;13.50;83.70
42905;DHT22;28550;51.228;4.528;2022-10-16T01:46:20;13.50;80.70
42905;DHT22;28550;51.228;4.528;2022-10-16T01:48:48;13.50;82.40
42905;DHT22;28550;51.228;4.528;2022-10-16T01:51:14;13.40;83.80
42905;DHT22;28550;51.228;4.528;2022-10-16T01:53:40;13.40;84.40
42905;DHT22;28550;51.228;4.528;2022-10-16T01:56:08;13.20;86.60
42905;DHT22;28550;51.228;4.528;2022-10-16T01:58:35;13.10;88.70
42905;DHT22;28550;51.228;4.528;2022-10-16T02:01:03;13.10;89.50
42905;DHT22;28550;51.228;4.528;2022-10-16T02:03:48;13.10;89.40
42905;DHT22;28550;51.228;4.528;2022-10-16T02:06:17;13.20;89.60
42905;DHT22;28550;51.228;4.528;2022-10-16T02:08:42;13.10;89.00
42905;DHT22;28550;51.228;4.528;2022-10-16T02:11:09;13.10;86.30
42905;DHT22;28550;51.228;4.528;2022-10-16T02:16:05;13.00;90.50
42905;DHT22;28550;51.228;4.528;2022-10-16T02:18:31;13.00;89.90
42905;DHT22;28550;51.228;4.528;2022-10-16T02:26:07;13.10;89.70
42905;DHT22;28550;51.228;4.528;2022-10-16T02:28:37;13.00;90.70
42905;DHT22;28550;51.228;4.528;2022-10-16T02:31:07;13.00;90.20
42905;DHT22;28550;51.228;4.528;2022-10-16T02:33:33;12.90;90.80
42905;DHT22;28550;51.228;4.528;2022-10-16T02:36:00;12.80;91.00
42905;DHT22;28550;51.228;4.528;2022-10-16T02:38:26;12.80;91.60
42905;DHT22;28550;51.228;4.528;2022-10-16T02:40:52;12.90;91.50
42905;DHT22;28550;51.228;4.528;2022-10-16T02:43:17;12.90;90.30
42905;DHT22;28550;51.228;4.528;2022-10-16T02:45:43;12.70;92.20
42905;DHT22;28550;51.228;4.528;2022-10-16T02:48:11;12.70;90.80
42905;DHT22;28550;51.228;4.528;2022-10-16T02:50:37;12.80;93.70
42905;DHT22;28550;51.228;4.528;2022-10-16T02:53:02;12.80;92.30
42905;DHT22;28550;51.228;4.528;2022-10-16T02:55:28;12.90;91.70
42905;DHT22;28550;51.228;4.528;2022-10-16T02:57:53;12.90;91.30
42905;DHT22;28550;51.228;4.528;2022-10-16T03:00:36;13.00;91.30
42905;DHT22;28550;51.228;4.528;2022-10-16T03:03:01;13.00;92.20
42905;DHT22;28550;51.228;4.528;2022-10-16T03:05:27;13.00;91.10
42905;DHT22;28550;51.228;4.528;2022-10-16T03:07:52;12.90;91.00
42905;DHT22;28550;51.228;4.528;2022-10-16T03:10:18;12.90;90.90
42905;DHT22;28550;51.228;4.528;2022-10-16T03:12:43;12.90;92.00
42905;DHT22;28550;51.228;4.528;2022-10-16T03:15:09;13.00;91.40
42905;DHT22;28550;51.228;4.528;2022-10-16T03:17:36;13.00;91.80
42905;DHT22;28550;51.228;4.528;2022-10-16T03:20:02;13.00;93.20
42905;DHT22;28550;51.228;4.528;2022-10-16T03:22:28;13.00;93.30
42905;DHT22;28550;51.228;4.528;2022-10-16T03:24:54;13.10;91.70
42905;DHT22;28550;51.228;4.528;2022-10-16T03:27:20;13.20;90.40
42905;DHT22;28550;51.228;4.528;2022-10-16T03:29:46;13.20;91.90
42905;DHT22;28550;51.228;4.528;2022-10-16T03:32:12;13.10;90.30
42905;DHT22;28550;51.228;4.528;2022-10-16T03:34:39;13.20;92.00
42905;DHT22;28550;51.228;4.528;2022-10-16T03:37:04;13.20;91.70
42905;DHT22;28550;51.228;4.528;2022-10-16T03:39:30;13.30;91.20
42905;DHT22;28550;51.228;4.528;2022-10-16T03:41:55;13.30;90.70
42905;DHT22;28550;51.228;4.528;2022-10-16T03:44:21;13.30;90.00
42905;DHT22;28550;51.228;4.528;2022-10-16T03:46:47;13.30;91.20
42905;DHT22;28550;51.228;4.528;2022-10-16T03:49:12;13.40;89.60
42905;DHT22;28550;51.228;4.528;2022-10-16T03:51:38;13.30;90.10
42905;DHT22;28550;51.228;4.528;2022-10-16T03:54:03;13.20;90.60
42905;DHT22;28550;51.228;4.528;2022-10-16T03:56:31;13.30;90.80
42905;DHT22;28550;51.228;4.528;2022-10-16T03:58:57;13.20;91.70
42905;DHT22;28550;51.228;4.528;2022-10-16T04:01:23;13.30;91.30
42905;DHT22;28550;51.228;4.528;2022-10-16T04:03:48;13.30;91.00
42905;DHT22;28550;51.228;4.528;2022-10-16T04:06:16;13.50;89.00
42905;DHT22;28550;51.228;4.528;2022-10-16T04:08:49;13.40;91.00
42905;DHT22;28550;51.228;4.528;2022-10-16T04:11:15;13.40;88.30
42905;DHT22;28550;51.228;4.528;2022-10-16T04:13:40;13.50;88.10
42905;DHT22;28550;51.228;4.528;2022-10-16T04:16:06;13.30;88.50
42905;DHT22;28550;51.228;4.528;2022-10-16T04:18:32;13.30;90.80
42905;DHT22;28550;51.228;4.528;2022-10-16T04:21:07;13.40;90.10
42905;DHT22;28550;51.228;4.528;2022-10-16T04:23:32;13.40;90.60
42905;DHT22;28550;51.228;4.528;2022-10-16T04:25:58;13.30;90.50
42905;DHT22;28550;51.228;4.528;2022-10-16T04:28:24;13.30;91.60
42905;DHT22;28550;51.228;4.528;2022-10-16T04:30:49;13.30;90.80
42905;DHT22;28550;51.228;4.528;2022-10-16T04:33:15;13.30;90.60
42905;DHT22;28550;51.228;4.528;2022-10-16T04:35:43;13.30;90.40
42905;DHT22;28550;51.228;4.528;2022-10-16T04:38:09;13.30;88.30
42905;DHT22;28550;51.228;4.528;2022-10-16T04:40:34;13.30;90.70
42905;DHT22;28550;51.228;4.528;2022-10-16T04:43:03;13.20;91.40
42905;DHT22;28550;51.228;4.528;2022-10-16T04:45:31;13.20;92.10
42905;DHT22;28550;51.228;4.528;2022-10-16T04:47:57;13.10;91.00
42905;DHT22;28550;51.228;4.528;2022-10-16T04:50:26;13.20;91.30
42905;DHT22;28550;51.228;4.528;2022-10-16T04:52:51;13.20;92.10
42905;DHT22;28550;51.228;4.528;2022-10-16T04:55:19;13.10;91.40
42905;DHT22;28550;51.228;4.528;2022-10-16T04:57:47;13.10;92.80
42905;DHT22;28550;51.228;4.528;2022-10-16T05:00:13;13.00;92.00
42905;DHT22;28550;51.228;4.528;2022-10-16T05:02:39;12.90;92.10
42905;DHT22;28550;51.228;4.528;2022-10-16T05:05:04;13.00;93.20
42905;DHT22;28550;51.228;4.528;2022-10-16T05:07:30;13.00;93.60
42905;DHT22;28550;51.228;4.528;2022-10-16T05:09:56;13.00;92.90
42905;DHT22;28550;51.228;4.528;2022-10-16T05:12:21;12.90;92.40
42905;DHT22;28550;51.228;4.528;2022-10-16T05:14:47;12.90;91.30
42905;DHT22;28550;51.228;4.528;2022-10-16T05:17:14;12.80;93.30
42905;DHT22;28550;51.228;4.528;2022-10-16T05:19:39;12.80;94.70
42905;DHT22;28550;51.228;4.528;2022-10-16T05:22:05;12.70;94.50
42905;DHT22;28550;51.228;4.528;2022-10-16T05:24:30;12.60;94.20
42905;DHT22;28550;51.228;4.528;2022-10-16T05:26:57;12.60;94.90
42905;DHT22;28550;51.228;4.528;2022-10-16T05:29:22;12.60;95.90
42905;DHT22;28550;51.228;4.528;2022-10-16T05:31:52;12.70;94.90
42905;DHT22;28550;51.228;4.528;2022-10-16T05:34:19;12.70;96.00
42905;DHT22;28550;51.228;4.528;2022-10-16T05:36:45;12.80;95.90
42905;DHT22;28550;51.228;4.528;2022-10-16T05:39:11;12.80;94.70
42905;DHT22;28550;51.228;4.528;2022-10-16T05:41:37;12.70;95.50
42905;DHT22;28550;51.228;4.528;2022-10-16T05:44:06;12.60;94.20
42905;DHT22;28550;51.228;4.528;2022-10-16T05:46:32;12.60;95.70
42905;DHT22;28550;51.228;4.528;2022-10-16T05:48:59;12.70;95.70
42905;DHT22;28550;51.228;4.528;2022-10-16T05:51:24;12.80;95.70
42905;DHT22;28550;51.228;4.528;2022-10-16T05:53:51;12.80;94.30
42905;DHT22;28550;51.228;4.528;2022-10-16T05:56:17;12.80;95.20
42905;DHT22;28550;51.228;4.528;2022-10-16T05:58:42;12.70;94.20
42905;DHT22;28550;51.228;4.528;2022-10-16T06:01:10;12.70;94.60
42905;DHT22;28550;51.228;4.528;2022-10-16T06:03:36;12.80;95.10
42905;DHT22;28550;51.228;4.528;2022-10-16T06:06:17;12.70;94.30
42905;DHT22;28550;51.228;4.528;2022-10-16T06:08:46;12.70;96.40
42905;DHT22;28550;51.228;4.528;2022-10-16T06:11:15;12.80;96.10
42905;DHT22;28550;51.228;4.528;2022-10-16T06:13:43;12.80;96.30
42905;DHT22;28550;51.228;4.528;2022-10-16T06:16:11;13.00;95.90
42905;DHT22;28550;51.228;4.528;2022-10-16T06:18:37;13.00;95.50
42905;DHT22;28550;51.228;4.528;2022-10-16T06:21:17;13.00;95.70
42905;DHT22;28550;51.228;4.528;2022-10-16T06:23:43;13.10;96.50
42905;DHT22;28550;51.228;4.528;2022-10-16T06:26:12;13.10;95.40
42905;DHT22;28550;51.228;4.528;2022-10-16T06:28:38;13.10;97.00
42905;DHT22;28550;51.228;4.528;2022-10-16T06:31:04;13.10;95.90
42905;DHT22;28550;51.228;4.528;2022-10-16T06:33:30;13.30;96.00
42905;DHT22;28550;51.228;4.528;2022-10-16T06:36:05;13.30;95.00
42905;DHT22;28550;51.228;4.528;2022-10-16T06:38:31;13.40;95.60
42905;DHT22;28550;51.228;4.528;2022-10-16T06:41:04;13.40;94.80
42905;DHT22;28550;51.228;4.528;2022-10-16T06:43:30;13.60;95.40
42905;DHT22;28550;51.228;4.528;2022-10-16T06:46:04;13.80;95.20
42905;DHT22;28550;51.228;4.528;2022-10-16T06:48:30;13.70;94.80
42905;DHT22;28550;51.228;4.528;2022-10-16T06:51:00;13.60;93.60
42905;DHT22;28550;51.228;4.528;2022-10-16T06:53:29;13.60;94.00
42905;DHT22;28550;51.228;4.528;2022-10-16T06:55:56;13.60;92.80
42905;DHT22;28550;51.228;4.528;2022-10-16T06:58:22;13.60;94.10
42905;DHT22;28550;51.228;4.528;2022-10-16T07:00:47;13.90;91.40
42905;DHT22;28550;51.228;4.528;2022-10-16T07:03:13;14.10;88.20
42905;DHT22;28550;51.228;4.528;2022-10-16T07:05:39;14.10;84.90
42905;DHT22;28550;51.228;4.528;2022-10-16T07:08:05;14.20;83.80
42905;DHT22;28550;51.228;4.528;2022-10-16T07:10:31;14.20;80.90
42905;DHT22;28550;51.228;4.528;2022-10-16T07:12:57;14.30;81.30
42905;DHT22;28550;51.228;4.528;2022-10-16T07:15:22;14.40;86.20
42905;DHT22;28550;51.228;4.528;2022-10-16T07:17:55;15.00;74.90
42905;DHT22;28550;51.228;4.528;2022-10-16T07:20:21;15.60;71.60
42905;DHT22;28550;51.228;4.528;2022-10-16T07:22:47;16.40;32.20
42905;DHT22;28550;51.228;4.528;2022-10-16T07:25:14;16.90;12.00
42905;DHT22;28550;51.228;4.528;2022-10-16T07:27:40;17.80;1.00
42905;DHT22;28550;51.228;4.528;2022-10-16T07:30:06;18.30;99.90
42905;DHT22;28550;51.228;4.528;2022-10-16T07:32:33;18.70;35.60
42905;DHT22;28550;51.228;4.528;2022-10-16T07:35:03;19.00;99.90
42905;DHT22;28550;51.228;4.528;2022-10-16T07:37:36;19.10;99.90
42905;DHT22;28550;51.228;4.528;2022-10-16T07:40:06;19.20;99.90
42905;DHT22;28550;51.228;4.528;2022-10-16T07:42:32;19.30;1.00
42905;DHT22;28550;51.228;4.528;2022-10-16T07:44:58;19.60;99.90
42905;DHT22;28550;51.228;4.528;2022-10-16T07:47:23;19.90;99.90
42905;DHT22;28550;51.228;4.528;2022-10-16T07:49:49;20.10;1.00
42905;DHT22;28550;51.228;4.528;2022-10-16T07:52:22;20.30;99.90
42905;DHT22;28550;51.228;4.528;2022-10-16T07:54:56;20.40;1.00
42905;DHT22;28550;51.228;4.528;2022-10-16T07:57:21;20.60;1.00
42905;DHT22;28550;51.228;4.528;2022-10-16T08:02:40;20.60;6.40
42905;DHT22;28550;51.228;4.528;2022-10-16T08:05:10;20.60;1.00
42905;DHT22;28550;51.228;4.528;2022-10-16T08:07:36;21.20;1.00
42905;DHT22;28550;51.228;4.528;2022-10-16T08:10:14;21.50;99.90
42905;DHT22;28550;51.228;4.528;2022-10-16T08:12:47;21.70;1.00
42905;DHT22;28550;51.228;4.528;2022-10-16T08:15:18;21.70;99.90
42905;DHT22;28550;51.228;4.528;2022-10-16T08:17:56;21.90;1.00
42905;DHT22;28550;51.228;4.528;2022-10-16T08:20:22;22.20;99.90
42905;DHT22;28550;51.228;4.528;2022-10-16T08:22:47;22.80;99.90
42905;DHT22;28550;51.228;4.528;2022-10-16T08:25:24;23.00;99.90
42905;DHT22;28550;51.228;4.528;2022-10-16T08:27:51;22.90;99.90
42905;DHT22;28550;51.228;4.528;2022-10-16T08:30:18;23.40;99.90
42905;DHT22;28550;51.228;4.528;2022-10-16T08:32:44;23.60;1.00
42905;DHT22;28550;51.228;4.528;2022-10-16T08:35:10;23.50;1.00
42905;DHT22;28550;51.228;4.528;2022-10-16T08:37:36;23.10;99.90
42905;DHT22;28550;51.228;4.528;2022-10-16T08:40:05;23.10;99.90
42905;DHT22;28550;51.228;4.528;2022-10-16T08:45:02;23.90;99.90
42905;DHT22;28550;51.228;4.528;2022-10-16T08:50:31;24.40;1.00
42905;DHT22;28550;51.228;4.528;2022-10-16T08:53:04;23.90;1.00
42905;DHT22;28550;51.228;4.528;2022-10-16T08:55:33;24.30;1.00
42905;DHT22;28550;51.228;4.528;2022-10-16T08:58:04;24.30;1.00
42905;DHT22;28550;51.228;4.528;2022-10-16T09:00:41;24.00;1.00
42905;DHT22;28550;51.228;4.528;2022-10-16T09:08:29;24.60;99.90
42905;DHT22;28550;51.228;4.528;2022-10-16T09:13:34;24.60;99.90
42905;DHT22;28550;51.228;4.528;2022-10-16T09:21:08;24.60;99.90
42905;DHT22;28550;51.228;4.528;2022-10-16T09:23:36;24.10;99.90
42905;DHT22;28550;51.228;4.528;2022-10-16T09:26:05;23.70;99.90
42905;DHT22;28550;51.228;4.528;2022-10-16T09:32:10;22.30;99.90
42905;DHT22;28550;51.228;4.528;2022-10-16T09:34:37;21.50;1.00
42905;DHT22;28550;51.228;4.528;2022-10-16T09:37:05;21.30;1.00
42905;DHT22;28550;51.228;4.528;2022-10-16T09:39:48;20.90;15.80
42905;DHT22;28550;51.228;4.528;2022-10-16T09:42:15;20.80;99.90
42905;DHT22;28550;51.228;4.528;2022-10-16T09:44:40;20.60;99.90
42905;DHT22;28550;51.228;4.528;2022-10-16T09:47:16;20.40;99.90
42905;DHT22;28550;51.228;4.528;2022-10-16T09:52:18;19.90;99.90
42905;DHT22;28550;51.228;4.528;2022-10-16T09:54:57;19.70;99.90
42905;DHT22;28550;51.228;4.528;2022-10-16T09:57:23;19.70;1.00
42905;DHT22;28550;51.228;4.528;2022-10-16T10:02:54;21.80;99.90
42905;DHT22;28550;51.228;4.528;2022-10-16T10:05:21;23.80;1.00
42905;DHT22;28550;51.228;4.528;2022-10-16T10:07:52;24.90;1.00
42905;DHT22;28550;51.228;4.528;2022-10-16T10:10:23;25.90;99.90
42905;DHT22;28550;51.228;4.528;2022-10-16T10:12:49;25.80;99.90
42905;DHT22;28550;51.228;4.528;2022-10-16T10:15:15;25.90;99.90
42905;DHT22;28550;51.228;4.528;2022-10-16T10:17:47;25.80;99.90
42905;DHT22;28550;51.228;4.528;2022-10-16T10:20:32;25.40;99.90
42905;DHT22;28550;51.228;4.528;2022-10-16T10:23:00;24.80;99.90
42905;DHT22;28550;51.228;4.528;2022-10-16T10:28:29;24.60;99.90
42905;DHT22;28550;51.228;4.528;2022-10-16T10:33:42;24.40;99.90
42905;DHT22;28550;51.228;4.528;2022-10-16T10:36:12;23.80;99.90
42905;DHT22;28550;51.228;4.528;2022-10-16T11:07:27;22.30;99.90
42905;DHT22;28550;51.228;4.528;2022-10-16T11:10:16;22.00;99.90
42905;DHT22;28550;51.228;4.528;2022-10-16T11:16:15;21.90;99.90
42905;DHT22;28550;51.228;4.528;2022-10-16T11:37:40;26.50;20.70
42905;DHT22;28550;51.228;4.528;2022-10-16T11:55:47;30.30;99.90
42905;DHT22;28550;51.228;4.528;2022-10-16T12:03:26;31.60;99.90
42905;DHT22;28550;51.228;4.528;2022-10-16T12:06:10;31.00;99.90
42905;DHT22;28550;51.228;4.528;2022-10-16T16:06:34;18.70;1.00
42905;DHT22;28550;51.228;4.528;2022-10-16T16:09:02;18.80;1.00
42905;DHT22;28550;51.228;4.528;2022-10-16T16:11:28;18.90;1.00
42905;DHT22;28550;51.228;4.528;2022-10-16T16:13:54;18.90;1.00
42905;DHT22;28550;51.228;4.528;2022-10-16T16:16:20;18.70;99.90
42905;DHT22;28550;51.228;4.528;2022-10-16T16:18:46;18.40;99.90
42905;DHT22;28550;51.228;4.528;2022-10-16T16:21:13;18.40;99.90
42905;DHT22;28550;51.228;4.528;2022-10-16T16:23:44;18.50;99.90
42905;DHT22;28550;51.228;4.528;2022-10-16T16:26:14;18.50;99.90
42905;DHT22;28550;51.228;4.528;2022-10-16T16:28:41;18.50;99.90
